Harrisburg, PA (17123)

6:15 PM EST on March 04, 2015 (GMT -0500)
Bellevue Park | Change Station
CLOSE
Current Station
Personal Weather Station
Location: Harrisburg, PA
Elevation: 498 ft
Nearby Weather Stations
Active Advisory: Winter Storm Warning

Elev 498 ft 40.27 °N, 76.85 °W | Updated 1 second ago

Rain
Rain
39.4 °F
Feels Like 39 °F
N
0.0
Wind Variable Wind from ENE
Gusts 0.0 mph

Today
High -- | Low -- °F
--% Chance of Precip.
Yesterday
High -- | Low -- °F
Precip. -- in
6:36 AM 6:02 PM
Waxing Gibbous, 99% visible
Pressure 29.89 in
Visibility 2.5 miles
Clouds Overcast 2500 ft
Windchill 39 °F
Dew Point 38 °F
Humidity 95%
Rainfall 0.13 in
Snow Depth Not available.
UV 0 out of 12
Pollen .50 out of 12
Air Quality Not available.
Flu Activity Not available.
METAR KMDT 042156Z 00000KT 2 1/2SM R13/6000VP6000FT -RA BCFG BR OVC025 05/04 A2988 RMK AO2 SFC VIS 3 RAB37 SLP122 PCPN VRY LGT P0000 T00500044

More Conditions Fewer Conditions

Pressure 29.89 in
Visibility 2.5 miles
Clouds Overcast 2500 ft
Windchill 39 °F
Dew Point 38 °F
Humidity 95%
Rainfall 0.13 in
Snow Depth Not available.
UV 0 out of 12
Pollen .50 out of 12
Air Quality Not available.
Flu Activity Not available.
METAR KMDT 042156Z 00000KT 2 1/2SM R13/6000VP6000FT -RA BCFG BR OVC025 05/04 A2988 RMK AO2 SFC VIS 3 RAB37 SLP122 PCPN VRY LGT P0000 T00500044

More Conditions Fewer Conditions

10-Day Weather Forecast

Almanac

Astronomy

Mar. 04, 2015 Rise Set
Actual Time
Civil Twilight
Nautical Twilight
Astronomical Twilight
Moon
Length of Visible Light
Length of Day
Tomorrow will be .
, % of the Moon is Illuminated

Today's Extremes

State Highs State Lows

Community

WunderPhotos

Upload Photos

1,802,599 photos uploaded!

WunderBlogs® & News

Nearby

Air Quality

  Air Quality AQ Index Pollutant
Not available.

Snow Depth

Station Depth Elevation

Earthquake Activity

City Distance Mag. Time & Date
Minimum magnitude displayed is 2.5.

Coastal Water Temperatures

Place Temperature

Nearby Weather Stations

Winter Storm Warning
Statement as of 1:46 PM EST on March 04, 2015

... Winter Storm Warning remains in effect from 7 PM this evening
to 7 PM EST Thursday...

* accumulations... snow accumulation of 5 to 7 inches.

* Hazard types... snow.

* Timing... snow will redevelop this evening and continue overnight
into Thursday.

* Impacts... hazardous travel.

* Temperatures..20s to lower 30s.

Precautionary/preparedness actions...

Dangerous winter weather conditions are expected or occurring.
Use extreme caution if traveling. For the latest weather
information... go to weather.Gov/statecollege or monitor NOAA
Weather Radio.

Report snow or ice accumulation to the National Weather Service
State College by sending an email to ctp.Stormreports@noaa.Gov...
posting to the NWS State College facebook Page... or tweet
@nwsstatecollege with the hashtag c... T... p... W... x.